Time;durP1;ratioP1;P1;durP2;ratioP2;P2;SDS_P1;SDS_P2;PMS_P1;PMS_P2;Temp;Humidity;BMP_temperature;BMP_pressure;BME280_temperature;BME280_humidity;BME280_pressure;Samples;Min_cycle;Max_cycle;Signal;HPM_P1;HPM_P2
2022/05/22 00:00:40;;;;;;;6.13;5.55;;;;;;;21.15;52.34;94660.06;5119476;28;20187;-65
2022/05/22 00:03:08;;;;;;;5.93;5.43;;;;;;;21.11;52.44;94658.56;5118672;28;20204;-65
2022/05/22 00:05:35;;;;;;;5.28;4.88;;;;;;;21.08;52.40;94651.00;5118984;28;20509;-65
2022/05/22 00:08:02;;;;;;;5.38;4.97;;;;;;;21.06;52.40;94654.25;5119355;28;20188;-65
2022/05/22 00:10:30;;;;;;;5.32;4.82;;;;;;;21.06;52.31;94653.44;5118921;28;20211;-65
2022/05/22 00:12:56;;;;;;;5.88;5.43;;;;;;;21.04;52.45;94655.88;5119188;28;20180;-65
2022/05/22 00:15:23;;;;;;;7.68;5.25;;;;;;;21.03;52.56;94655.09;5119573;28;20195;-65
2022/05/22 00:17:52;;;;;;;6.30;5.70;;;;;;;21.01;52.76;94651.94;5118645;28;20184;-65
2022/05/22 00:20:21;;;;;;;5.80;5.30;;;;;;;20.99;52.49;94643.16;5119352;28;20184;-65
2022/05/22 00:22:48;;;;;;;5.88;5.32;;;;;;;20.99;52.68;94642.34;5118908;28;20194;-65
2022/05/22 00:25:15;;;;;;;5.80;5.40;;;;;;;21.00;52.77;94643.97;5118663;28;20604;-65
2022/05/22 00:27:43;;;;;;;6.82;5.40;;;;;;;20.99;52.62;94645.16;5118350;28;20195;-65
2022/05/22 00:30:12;;;;;;;5.47;5.07;;;;;;;20.99;52.69;94637.56;5117992;28;20596;-65
2022/05/22 00:32:39;;;;;;;5.70;5.05;;;;;;;20.99;52.63;94637.56;5118425;28;20525;-65
2022/05/22 00:35:08;;;;;;;4.72;4.38;;;;;;;20.99;52.83;94642.34;5118593;28;20545;-65
2022/05/22 00:37:35;;;;;;;5.63;5.10;;;;;;;20.96;52.92;94641.22;5117544;28;20204;-65
2022/05/22 00:40:02;;;;;;;5.88;5.28;;;;;;;20.95;52.86;94644.44;5117770;28;20237;-65
2022/05/22 00:42:30;;;;;;;5.63;5.07;;;;;;;20.95;52.98;94644.44;5117721;28;20239;-65
2022/05/22 00:44:56;;;;;;;5.28;4.78;;;;;;;20.94;52.97;94654.88;5118605;28;20180;-65
2022/05/22 00:47:23;;;;;;;6.07;5.57;;;;;;;20.95;53.16;94644.44;5118949;28;20199;-65
2022/05/22 00:49:51;;;;;;;5.65;5.15;;;;;;;20.94;53.28;94637.25;5116820;28;20184;-65
2022/05/22 00:52:22;;;;;;;6.40;5.20;;;;;;;20.91;53.06;94641.72;5118532;28;20180;-65
2022/05/22 00:54:53;;;;;;;5.32;4.78;;;;;;;20.88;53.23;94637.78;5117749;28;20198;-65
2022/05/22 00:57:22;;;;;;;5.13;4.72;;;;;;;20.87;53.33;94647.38;5118570;28;20200;-65
2022/05/22 00:59:53;;;;;;;6.88;5.15;;;;;;;20.87;53.33;94646.59;5117422;28;20223;-66
2022/05/22 01:02:20;;;;;;;5.47;4.97;;;;;;;20.85;53.37;94641.44;5118527;28;20603;-66
2022/05/22 01:04:49;;;;;;;5.50;5.00;;;;;;;20.84;53.34;94644.66;5118196;28;20196;-66
2022/05/22 01:07:16;;;;;;;5.03;4.63;;;;;;;20.82;53.23;94639.47;5117080;28;20303;-65
2022/05/22 01:09:45;;;;;;;5.38;4.85;;;;;;;20.81;53.17;94643.50;5117208;28;20621;-65
2022/05/22 01:12:15;;;;;;;5.05;4.55;;;;;;;20.83;52.92;94640.28;5117321;28;20635;-65
2022/05/22 01:14:43;;;;;;;5.50;5.05;;;;;;;20.82;52.80;94639.47;5118000;28;20192;-65
2022/05/22 01:17:11;;;;;;;5.32;4.82;;;;;;;20.80;52.46;94636.31;5117741;28;20172;-65
2022/05/22 01:19:38;;;;;;;4.90;4.50;;;;;;;20.80;52.49;94641.13;5117870;28;20219;-65
2022/05/22 01:22:08;;;;;;;4.63;4.32;;;;;;;20.78;52.25;94633.16;5117204;28;20188;-65
2022/05/22 01:24:35;;;;;;;4.70;4.40;;;;;;;20.77;52.02;94631.59;5117859;28;20694;-65
2022/05/22 01:27:05;;;;;;;5.15;4.75;;;;;;;20.77;51.89;94630.78;5117830;28;20196;-65
2022/05/22 01:29:33;;;;;;;4.70;4.30;;;;;;;20.75;51.61;94627.63;5116543;28;20196;-65
2022/05/22 01:31:59;;;;;;;5.18;4.60;;;;;;;20.73;51.20;94632.84;5117731;28;20192;-65
2022/05/22 01:34:26;;;;;;;4.40;4.00;;;;;;;20.74;51.04;94626.06;5117337;28;20184;-65
2022/05/22 01:36:53;;;;;;;4.57;4.18;;;;;;;20.76;50.68;94629.19;5117620;28;20187;-66
2022/05/22 01:39:23;;;;;;;4.45;4.00;;;;;;;20.76;50.33;94629.97;5117182;28;20219;-66
2022/05/22 01:41:50;;;;;;;4.07;3.78;;;;;;;20.75;49.75;94630.44;5117345;28;20240;-66
2022/05/22 01:44:17;;;;;;;4.20;3.90;;;;;;;20.72;49.14;94634.88;5117512;28;20184;-66
2022/05/22 01:46:44;;;;;;;4.00;3.70;;;;;;;20.73;49.17;94638.47;5117357;28;20191;-66
2022/05/22 01:49:11;;;;;;;4.88;3.75;;;;;;;20.71;48.46;94632.50;5117491;28;20188;-66
2022/05/22 01:51:39;;;;;;;4.32;4.03;;;;;;;20.70;48.42;94630.91;5116548;28;20199;-66
2022/05/22 01:54:06;;;;;;;3.92;3.60;;;;;;;20.68;47.78;94640.53;5117301;28;20186;-66
2022/05/22 01:56:36;;;;;;;3.67;3.38;;;;;;;20.67;47.45;94638.97;5117552;28;20233;-66
2022/05/22 01:59:04;;;;;;;3.97;3.67;;;;;;;20.65;46.78;94629.41;5116306;28;20215;-66
2022/05/22 02:01:31;;;;;;;3.53;3.22;;;;;;;20.63;46.57;94641.03;5116317;28;20203;-66
2022/05/22 02:03:58;;;;;;;4.78;3.70;;;;;;;20.60;46.13;94633.50;5115889;28;20199;-65
2022/05/22 02:06:24;;;;;;;3.47;3.17;;;;;;;20.60;45.45;94633.50;5117190;28;20187;-66
2022/05/22 02:08:50;;;;;;;3.85;3.20;;;;;;;20.59;45.07;94640.31;5116247;28;20188;-65
2022/05/22 02:11:17;;;;;;;3.35;3.10;;;;;;;20.59;44.75;94645.13;5116236;28;20215;-65
2022/05/22 02:13:47;;;;;;;3.78;2.95;;;;;;;20.58;44.19;94644.31;5117215;28;20194;-65
2022/05/22 02:16:14;;;;;;;4.32;3.35;;;;;;;20.58;43.50;94641.53;5115901;28;20214;-65
2022/05/22 02:18:41;;;;;;;3.78;2.83;;;;;;;20.58;43.13;94649.94;5115763;28;20620;-65
2022/05/22 02:21:08;;;;;;;3.28;3.03;;;;;;;20.57;43.33;94641.97;5116512;28;20604;-65
2022/05/22 02:23:36;;;;;;;3.30;3.00;;;;;;;20.55;42.67;94647.19;5115452;28;20196;-65
2022/05/22 02:26:04;;;;;;;3.22;2.92;;;;;;;20.53;42.72;94655.25;5116635;28;20188;-65
2022/05/22 02:28:31;;;;;;;3.13;2.92;;;;;;;20.51;42.53;94643.66;5116668;28;20192;-65
2022/05/22 02:31:02;;;;;;;3.35;3.13;;;;;;;20.50;42.77;94653.28;5115568;28;20191;-65
2022/05/22 02:33:29;;;;;;;3.28;2.70;;;;;;;20.48;42.58;94652.88;5116691;28;20188;-65
2022/05/22 02:35:56;;;;;;;3.20;2.90;;;;;;;20.48;42.56;94655.69;5115765;28;20203;-65
2022/05/22 02:38:24;;;;;;;3.03;2.70;;;;;;;20.45;42.47;94660.16;5116196;28;20192;-65
2022/05/22 02:40:51;;;;;;;3.50;2.80;;;;;;;20.44;42.06;94656.56;5116243;28;20222;-65
2022/05/22 02:43:18;;;;;;;3.10;2.90;;;;;;;20.41;42.07;94653.81;5115937;28;20300;-65
2022/05/22 02:45:45;;;;;;;3.38;2.60;;;;;;;20.43;42.16;94654.19;5115662;28;20203;-65
2022/05/22 02:48:13;;;;;;;3.17;2.88;;;;;;;20.43;41.97;94656.97;5116290;28;20195;-65
2022/05/22 02:50:41;;;;;;;3.42;2.97;;;;;;;20.43;41.65;94659.78;5115888;28;20184;-66
2022/05/22 02:53:08;;;;;;;5.22;2.85;;;;;;;20.41;41.18;94665.03;5115821;28;20483;-65
2022/05/22 02:55:35;;;;;;;4.97;4.53;;;;;;;20.38;40.61;94660.28;5116068;28;20194;-65
2022/05/22 02:58:02;;;;;;;3.47;3.17;;;;;;;20.36;40.13;94665.50;5115281;28;20206;-66
2022/05/22 03:00:30;;;;;;;3.58;3.17;;;;;;;20.34;39.96;94668.75;5115234;28;20212;-66
2022/05/22 03:02:58;;;;;;;3.17;2.88;;;;;;;20.34;39.75;94670.75;5115068;28;20245;-65
2022/05/22 03:05:27;;;;;;;3.25;3.00;;;;;;;20.34;39.68;94667.94;5115967;28;20183;-66
2022/05/22 03:07:54;;;;;;;3.25;3.05;;;;;;;20.33;39.08;94672.72;5114680;28;20218;-65
2022/05/22 03:10:22;;;;;;;3.58;3.20;;;;;;;20.34;39.44;94676.34;5115896;28;20184;-65
2022/05/22 03:12:49;;;;;;;3.25;2.90;;;;;;;20.31;38.67;94671.59;5115401;28;20248;-65
2022/05/22 03:15:16;;;;;;;3.17;2.63;;;;;;;20.30;37.93;94673.63;5115493;28;20188;-65
2022/05/22 03:17:43;;;;;;;3.10;2.40;;;;;;;20.27;37.79;94671.66;5115512;28;20199;-65
2022/05/22 03:20:12;;;;;;;2.67;2.20;;;;;;;20.29;38.21;94666.41;5114873;28;20219;-65
2022/05/22 03:22:40;;;;;;;3.42;2.55;;;;;;;20.30;37.44;94675.59;5114554;28;20187;-65
2022/05/22 03:25:08;;;;;;;2.80;2.60;;;;;;;20.30;37.67;94670.81;5115896;28;20191;-65
2022/05/22 03:27:36;;;;;;;2.35;2.25;;;;;;;20.30;37.42;94673.63;5115509;28;20196;-65
2022/05/22 03:30:05;;;;;;;4.03;2.88;;;;;;;20.31;37.29;94672.38;5115418;28;20627;-65
2022/05/22 03:32:32;;;;;;;2.60;2.40;;;;;;;20.32;37.25;94673.97;5115640;28;20180;-65
2022/05/22 03:35:00;;;;;;;4.90;2.75;;;;;;;20.33;37.23;94669.94;5114482;28;20240;-65
2022/05/22 03:37:27;;;;;;;2.63;2.42;;;;;;;20.33;37.29;94681.13;5114705;28;20612;-65
2022/05/22 03:39:55;;;;;;;2.92;2.63;;;;;;;20.34;38.93;94687.56;5114536;28;20223;-65
2022/05/22 03:42:24;;;;;;;2.60;2.40;;;;;;;20.32;39.42;94687.97;5114249;28;20231;-65
2022/05/22 03:44:51;;;;;;;2.95;2.50;;;;;;;20.29;40.36;94686.00;5114298;28;20192;-65
2022/05/22 03:47:17;;;;;;;3.08;2.80;;;;;;;20.26;40.44;94692.47;5115031;28;20206;-65
2022/05/22 03:49:44;;;;;;;3.00;2.80;;;;;;;20.25;40.20;94692.91;5114752;28;20196;-65
2022/05/22 03:52:11;;;;;;;2.70;2.47;;;;;;;20.26;39.04;94686.88;5114661;28;20195;-65
2022/05/22 03:54:38;;;;;;;2.67;2.47;;;;;;;20.26;38.78;94681.28;5114182;28;20195;-65
2022/05/22 03:57:06;;;;;;;6.88;2.92;;;;;;;20.26;42.50;94675.69;5115741;28;20207;-65
2022/05/22 03:59:33;;;;;;;3.28;2.78;;;;;;;20.22;43.29;94686.13;5115247;28;20231;-65
2022/05/22 04:02:00;;;;;;;3.53;2.70;;;;;;;20.20;42.93;94675.38;5115350;28;20179;-65
2022/05/22 04:04:27;;;;;;;2.90;2.58;;;;;;;20.20;43.24;94680.97;5114517;28;20202;-65
2022/05/22 04:06:53;;;;;;;3.70;2.70;;;;;;;20.19;43.36;94687.00;5114324;28;20195;-65
2022/05/22 04:09:20;;;;;;;3.30;3.00;;;;;;;20.16;45.30;94685.81;5114304;28;20192;-65
2022/05/22 04:11:47;;;;;;;4.18;3.05;;;;;;;20.11;45.88;94686.28;5115263;28;20212;-68
2022/05/22 04:14:18;;;;;;;4.18;3.05;;;;;;;20.07;46.09;94682.75;5115046;28;20180;-66
2022/05/22 04:16:45;;;;;;;6.22;3.30;;;;;;;20.04;47.06;94689.19;5114497;28;20201;-66
2022/05/22 04:19:12;;;;;;;3.20;2.90;;;;;;;20.01;46.67;94687.28;5115125;28;20180;-66
2022/05/22 04:21:42;;;;;;;3.28;2.97;;;;;;;20.02;47.46;94688.84;5114908;28;20217;-66
2022/05/22 04:26:53;;;;;;;4.55;3.05;;;;;;;20.00;48.50;94696.88;5118787;28;20176;-66
2022/05/22 04:29:21;;;;;;;3.75;2.60;;;;;;;19.97;48.76;94692.09;5118813;28;20586;-66
2022/05/22 04:31:48;;;;;;;3.55;2.85;;;;;;;19.96;49.58;94691.31;5118847;28;20194;-66
2022/05/22 04:34:16;;;;;;;5.38;2.88;;;;;;;19.96;49.52;94699.72;5118627;28;20202;-66
2022/05/22 04:36:43;;;;;;;5.30;3.38;;;;;;;19.94;49.77;94695.78;5118913;28;20184;-66
2022/05/22 04:39:11;;;;;;;5.38;3.53;;;;;;;19.94;50.44;94698.56;5118435;28;20183;-66
2022/05/22 04:41:37;;;;;;;5.50;3.38;;;;;;;19.92;50.41;94698.97;5118513;28;20238;-66
2022/05/22 04:44:05;;;;;;;6.07;3.50;;;;;;;19.92;50.54;94710.19;5118514;28;20203;-66
2022/05/22 04:46:33;;;;;;;5.65;3.58;;;;;;;19.92;50.62;94712.19;5118625;28;20210;-66
2022/05/22 04:49:00;;;;;;;8.93;3.78;;;;;;;19.90;50.82;94709.81;5118572;28;20188;-66
2022/05/22 04:51:27;;;;;;;5.55;3.33;;;;;;;19.90;51.19;94697.84;5118546;28;20188;-66
2022/05/22 04:53:53;;;;;;;4.95;3.22;;;;;;;19.91;50.71;94705.81;5118470;28;20187;-66
2022/05/22 04:56:21;;;;;;;6.07;3.17;;;;;;;19.89;50.03;94708.22;5118482;28;20203;-66
2022/05/22 04:58:48;;;;;;;6.13;3.40;;;;;;;19.90;49.79;94700.63;5117388;28;20188;-66
2022/05/22 05:01:15;;;;;;;3.70;3.17;;;;;;;19.92;49.26;94706.59;5118446;28;20200;-66
2022/05/22 05:03:44;;;;;;;4.60;3.30;;;;;;;19.96;45.44;94698.94;5118378;28;20180;-66
2022/05/22 05:06:11;;;;;;;4.88;3.70;;;;;;;20.01;45.15;94715.25;5118497;28;20195;-66
2022/05/22 05:08:37;;;;;;;3.90;3.50;;;;;;;20.03;45.30;94698.03;5118225;28;20183;-65
2022/05/22 05:11:04;;;;;;;4.07;3.08;;;;;;;20.05;45.33;94692.81;5117510;28;20207;-65
2022/05/22 05:13:31;;;;;;;2.97;2.70;;;;;;;20.08;45.06;94700.34;5118137;28;20187;-65
2022/05/22 05:16:00;;;;;;;3.78;2.83;;;;;;;20.11;43.09;94703.09;5117955;28;20191;-66
2022/05/22 05:18:27;;;;;;;2.78;2.53;;;;;;;20.15;41.66;94705.84;5118061;28;20192;-67
2022/05/22 05:20:56;;;;;;;2.92;2.60;;;;;;;20.17;41.69;94703.41;5117900;28;20203;-66
2022/05/22 05:23:22;;;;;;;3.35;2.53;;;;;;;20.20;41.24;94702.56;5116772;28;20203;-66
2022/05/22 05:25:49;;;;;;;3.00;2.50;;;;;;;20.22;41.23;94710.53;5117302;28;20645;-66
2022/05/22 05:28:16;;;;;;;7.32;4.68;;;;;;;20.22;40.11;94708.53;5117100;28;20203;-65
2022/05/22 05:30:43;;;;;;;8.98;4.43;;;;;;;20.24;40.23;94710.91;5116821;28;20199;-65
2022/05/22 05:33:10;;;;;;;6.90;3.80;;;;;;;20.25;40.67;94704.09;5116866;28;20206;-64
2022/05/22 05:35:37;;;;;;;7.75;4.82;;;;;;;20.28;40.03;94706.03;5117144;28;20222;-64
2022/05/22 05:38:06;;;;;;;8.15;4.25;;;;;;;20.30;39.66;94712.00;5117726;28;20602;-65
2022/05/22 05:40:33;;;;;;;9.15;4.60;;;;;;;20.31;40.36;94714.41;5116729;28;20238;-65
2022/05/22 05:43:00;;;;;;;6.80;3.45;;;;;;;20.30;38.83;94710.00;5116609;28;20231;-65
2022/05/22 05:45:27;;;;;;;5.57;3.55;;;;;;;20.32;39.07;94712.38;5116310;28;20200;-65
2022/05/22 05:47:54;;;;;;;4.88;3.65;;;;;;;20.34;39.79;94721.94;5116536;28;20198;-65
2022/05/22 05:50:22;;;;;;;5.85;2.75;;;;;;;20.35;39.25;94720.72;5116540;28;20188;-65
2022/05/22 05:52:50;;;;;;;3.10;2.80;;;;;;;20.39;39.48;94720.66;5117062;28;20205;-65
2022/05/22 05:55:19;;;;;;;3.22;2.60;;;;;;;20.40;39.30;94723.03;5116867;28;20195;-65
2022/05/22 05:57:46;;;;;;;3.28;2.90;;;;;;;20.38;38.78;94730.28;5117232;28;20210;-65
2022/05/22 06:00:15;;;;;;;3.45;2.63;;;;;;;20.38;38.45;94731.09;5116279;28;20207;-65
2022/05/22 06:02:42;;;;;;;3.72;2.78;;;;;;;20.39;38.66;94729.06;5117081;28;20180;-65
2022/05/22 06:05:10;;;;;;;2.95;2.30;;;;;;;20.38;38.73;94733.09;5116496;28;20191;-64
2022/05/22 06:07:37;;;;;;;3.47;2.38;;;;;;;20.39;39.65;94734.66;5116344;28;20200;-67
2022/05/22 06:10:04;;;;;;;3.13;2.50;;;;;;;20.38;38.92;94724.69;5116905;28;20199;-65
2022/05/22 06:12:32;;;;;;;2.88;2.10;;;;;;;20.36;38.72;94727.91;5116067;28;20211;-66
2022/05/22 06:14:59;;;;;;;2.03;1.92;;;;;;;20.35;38.87;94728.34;5116859;28;20195;-65
2022/05/22 06:17:31;;;;;;;4.28;2.15;;;;;;;20.35;38.55;94722.75;5116589;28;20638;-65
2022/05/22 06:19:58;;;;;;;2.28;2.10;;;;;;;20.35;38.86;94731.94;5116861;28;20190;-65
2022/05/22 06:22:26;;;;;;;3.33;2.30;;;;;;;20.36;38.77;94725.09;5116019;28;20534;-65
2022/05/22 06:24:54;;;;;;;3.05;2.78;;;;;;;20.34;39.40;94723.97;5116761;28;20184;-65
2022/05/22 06:27:21;;;;;;;2.88;2.10;;;;;;;20.34;39.13;94732.38;5116356;28;20215;-65
2022/05/22 06:29:50;;;;;;;3.15;2.63;;;;;;;20.34;38.95;94729.56;5115858;28;20199;-65
2022/05/22 06:32:20;;;;;;;3.35;2.75;;;;;;;20.34;39.03;94727.56;5116492;28;20184;-65
2022/05/22 06:34:47;;;;;;;3.35;2.50;;;;;;;20.34;39.35;94726.75;5116613;28;20278;-65
2022/05/22 06:37:17;;;;;;;4.97;3.05;;;;;;;20.36;39.30;94721.50;5115669;28;20188;-65
2022/05/22 06:39:52;;;;;;;3.17;2.83;;;;;;;20.37;39.75;94723.09;5116157;28;20244;-65
2022/05/22 06:42:22;;;;;;;3.13;2.60;;;;;;;20.40;39.80;94725.03;5115885;28;20258;-66
2022/05/22 06:44:56;;;;;;;3.00;2.60;;;;;;;20.41;39.90;94721.06;5115410;28;20218;-66
2022/05/22 06:47:23;;;;;;;2.65;2.45;;;;;;;20.44;40.15;94720.16;5115679;28;20187;-64
2022/05/22 06:49:51;;;;;;;3.78;2.40;;;;;;;20.45;40.35;94718.97;5115974;28;20659;-65
2022/05/22 06:52:17;;;;;;;2.63;2.38;;;;;;;20.46;40.65;94714.16;5115351;28;20286;-65
2022/05/22 06:54:44;;;;;;;2.60;2.40;;;;;;;20.46;40.22;94719.75;5116148;28;20196;-65
2022/05/22 06:57:15;;;;;;;3.22;2.25;;;;;;;20.46;40.32;94728.97;5115239;28;20199;-65
2022/05/22 06:59:42;;;;;;;2.83;2.10;;;;;;;20.46;40.39;94712.16;5116466;28;20190;-64
2022/05/22 07:02:10;;;;;;;4.15;2.45;;;;;;;20.48;40.96;94720.94;5115997;28;20215;-64
2022/05/22 07:04:37;;;;;;;2.75;2.50;;;;;;;20.52;41.50;94712.50;5115150;28;20207;-64
2022/05/22 07:07:04;;;;;;;2.95;2.10;;;;;;;20.54;41.18;94704.44;5115745;28;20207;-64
2022/05/22 07:09:31;;;;;;;2.63;2.42;;;;;;;20.55;41.38;94708.81;5114213;28;20215;-64
2022/05/22 07:11:59;;;;;;;2.92;2.22;;;;;;;20.53;41.11;94702.88;5115644;28;20180;-64
2022/05/22 07:14:27;;;;;;;3.20;2.88;;;;;;;20.54;41.62;94712.84;5115954;28;20187;-64
2022/05/22 07:16:54;;;;;;;2.30;2.10;;;;;;;20.53;41.42;94703.66;5114661;28;20230;-64
2022/05/22 07:19:22;;;;;;;3.58;3.00;;;;;;;20.53;41.48;94709.25;5114890;28;20642;-64
2022/05/22 07:21:49;;;;;;;3.33;2.88;;;;;;;20.55;41.53;94706.84;5115801;28;20204;-64
2022/05/22 07:24:16;;;;;;;2.60;2.40;;;;;;;20.57;41.60;94698.00;5115215;28;20345;-64
2022/05/22 07:26:43;;;;;;;2.60;2.40;;;;;;;20.60;41.77;94703.53;5114364;28;20200;-64
2022/05/22 07:29:10;;;;;;;3.63;2.38;;;;;;;20.63;41.38;94708.28;5115749;28;20179;-64
2022/05/22 07:31:39;;;;;;;2.65;2.15;;;;;;;20.67;41.53;94705.44;5115416;28;20199;-64
2022/05/22 07:34:06;;;;;;;3.88;2.20;;;;;;;20.72;41.96;94710.53;5115052;28;20361;-64
2022/05/22 07:36:35;;;;;;;2.90;2.47;;;;;;;20.78;42.00;94708.81;5115280;28;20196;-64
2022/05/22 07:39:01;;;;;;;2.78;2.58;;;;;;;20.82;41.91;94714.38;5114642;28;20191;-64
2022/05/22 07:41:28;;;;;;;2.67;2.33;;;;;;;20.86;41.35;94712.28;5115124;28;20199;-64
2022/05/22 07:43:55;;;;;;;3.08;2.55;;;;;;;20.88;40.77;94710.66;5115653;28;20180;-64
2022/05/22 07:46:22;;;;;;;3.53;2.75;;;;;;;20.91;40.81;94703.38;5114645;28;20528;-64
2022/05/22 07:48:49;;;;;;;3.13;2.40;;;;;;;20.96;41.58;94699.31;5115470;28;20252;-65
2022/05/22 07:51:16;;;;;;;2.58;2.38;;;;;;;20.98;41.35;94700.44;5115223;28;20184;-64
2022/05/22 07:53:44;;;;;;;3.42;2.60;;;;;;;21.02;41.49;94694.75;5115460;28;20195;-64
2022/05/22 07:56:12;;;;;;;2.92;2.47;;;;;;;21.03;42.02;94687.97;5114347;28;20199;-64
2022/05/22 07:58:40;;;;;;;3.15;2.03;;;;;;;21.04;42.44;94690.31;5114587;28;20210;-64
2022/05/22 08:01:07;;;;;;;4.53;2.45;;;;;;;21.03;42.50;94690.75;5119231;28;20211;-64
2022/05/22 08:03:34;;;;;;;3.25;2.78;;;;;;;21.01;42.74;94677.16;5119712;28;20208;-64
2022/05/22 08:06:01;;;;;;;2.63;2.40;;;;;;;21.01;44.32;94674.34;5119141;28;20203;-66
2022/05/22 08:08:28;;;;;;;5.60;3.00;;;;;;;20.96;44.11;94669.25;5119058;28;20244;-65
2022/05/22 08:10:58;;;;;;;2.40;2.30;;;;;;;20.86;44.77;94667.44;5119132;28;20180;-65
2022/05/22 08:13:25;;;;;;;2.85;2.47;;;;;;;20.75;45.55;94661.25;5118188;28;20202;-65
2022/05/22 08:15:52;;;;;;;5.38;3.83;;;;;;;20.66;47.57;94662.59;5118907;28;20481;-65
2022/05/22 08:18:19;;;;;;;3.65;2.88;;;;;;;20.56;47.34;94660.00;5119256;28;20196;-64
2022/05/22 08:20:49;;;;;;;4.72;2.58;;;;;;;20.49;48.11;94666.47;5118709;28;20203;-64
2022/05/22 08:23:19;;;;;;;3.35;3.05;;;;;;;20.39;48.59;94657.03;5118292;28;20204;-64
2022/05/22 08:25:46;;;;;;;3.33;3.00;;;;;;;20.33;49.33;94653.13;5118603;28;20195;-64
2022/05/22 08:28:14;;;;;;;4.38;3.17;;;;;;;20.26;48.54;94653.28;5118762;28;20184;-64
2022/05/22 08:30:42;;;;;;;4.45;3.33;;;;;;;20.24;48.56;94649.31;5118971;28;20188;-64
2022/05/22 08:33:08;;;;;;;3.60;2.60;;;;;;;20.20;48.60;94643.78;5118046;28;20187;-64
2022/05/22 08:35:37;;;;;;;3.10;2.90;;;;;;;20.17;48.39;94647.41;5118463;28;20192;-64
2022/05/22 08:38:04;;;;;;;3.00;2.70;;;;;;;20.13;48.69;94638.28;5117645;28;20204;-64
2022/05/22 08:40:40;;;;;;;3.03;2.83;;;;;;;20.07;48.57;94643.56;5118042;28;20195;-64
2022/05/22 08:43:11;;;;;;;2.78;2.47;;;;;;;20.04;48.15;94638.03;5118448;28;20227;-64
2022/05/22 08:45:42;;;;;;;3.08;2.78;;;;;;;20.05;48.78;94648.81;5118872;28;20274;-64
2022/05/22 08:48:15;;;;;;;3.40;2.30;;;;;;;20.04;48.12;94644.41;5118622;28;20195;-64
2022/05/22 08:50:43;;;;;;;2.83;2.45;;;;;;;19.98;48.95;94643.34;5117385;28;20207;-64
2022/05/22 08:53:16;;;;;;;4.85;2.83;;;;;;;19.94;48.11;94642.59;5118567;28;20195;-64
2022/05/22 09:01:22;;;;;;;3.22;2.70;;;;;;;19.83;50.35;94639.97;5117068;28;20250;-64
2022/05/22 09:03:52;;;;;;;3.28;2.83;;;;;;;19.80;49.66;94648.41;5118328;28;20199;-64
2022/05/22 09:06:26;;;;;;;4.05;2.40;;;;;;;19.74;50.24;94653.69;5118191;28;20198;-64
2022/05/22 09:08:53;;;;;;;3.30;2.75;;;;;;;19.69;50.65;94657.75;5118142;28;20210;-64
2022/05/22 09:11:26;;;;;;;2.83;2.45;;;;;;;19.68;51.27;94658.97;5116913;28;20207;-64
2022/05/22 09:13:56;;;;;;;3.65;3.35;;;;;;;19.68;51.05;94656.19;5117384;28;20196;-64
2022/05/22 09:16:28;;;;;;;2.90;2.70;;;;;;;19.69;50.56;94648.56;5117735;28;20184;-64
2022/05/22 09:19:00;;;;;;;3.72;2.83;;;;;;;19.70;50.82;94650.16;5117638;28;20180;-64
2022/05/22 09:21:32;;;;;;;3.88;2.60;;;;;;;19.71;50.97;94652.50;5116612;28;20207;-64
2022/05/22 09:24:03;;;;;;;3.63;2.90;;;;;;;19.72;50.98;94650.53;5117308;28;20238;-64
2022/05/22 09:26:42;;;;;;;4.88;2.80;;;;;;;19.76;50.83;94640.06;5117505;28;20631;-64
2022/05/22 09:29:20;;;;;;;3.50;2.58;;;;;;;19.79;50.17;94635.63;5117868;28;20195;-64
2022/05/22 09:31:53;;;;;;;3.00;2.70;;;;;;;19.81;50.40;94636.00;5117662;28;20202;-64
2022/05/22 09:34:24;;;;;;;3.05;2.75;;;;;;;19.83;49.77;94630.78;5117682;28;20503;-64
2022/05/22 09:37:03;;;;;;;3.60;2.55;;;;;;;19.86;49.14;94630.72;5116631;28;20192;-64
2022/05/22 09:39:39;;;;;;;3.67;2.50;;;;;;;19.90;49.05;94630.69;5116738;28;20198;-64
2022/05/22 09:42:13;;;;;;;2.45;2.25;;;;;;;19.97;48.44;94624.94;5116486;28;20320;-64
2022/05/22 09:45:07;;;;;;;2.63;2.38;;;;;;;20.09;47.73;94627.16;5117272;28;20176;-64
2022/05/22 09:47:50;;;;;;;2.85;2.45;;;;;;;20.20;46.95;94615.78;5116585;28;20213;-64
2022/05/22 09:50:22;;;;;;;3.40;2.47;;;;;;;20.41;47.34;94611.81;5116310;28;20203;-65
2022/05/22 09:52:54;;;;;;;2.45;1.70;;;;;;;20.65;47.17;94609.78;5116377;28;20199;-66
2022/05/22 09:55:31;;;;;;;2.53;2.33;;;;;;;20.86;46.78;94600.97;5116065;28;20192;-65
2022/05/22 09:58:22;;;;;;;3.50;2.20;;;;;;;21.07;46.34;94596.16;5116711;28;20196;-65
2022/05/22 10:00:52;;;;;;;3.70;2.15;;;;;;;21.26;46.34;94591.75;5116426;28;20192;-65
2022/05/22 10:03:34;;;;;;;2.60;2.22;;;;;;;21.40;44.58;94588.66;5116416;28;20273;-65
2022/05/22 10:06:05;;;;;;;2.80;1.90;;;;;;;21.49;43.04;94590.84;5117091;28;20245;-65
2022/05/22 10:08:38;;;;;;;2.30;2.10;;;;;;;21.53;43.93;94567.13;5117096;28;20180;-65
2022/05/22 10:11:10;;;;;;;2.33;2.10;;;;;;;21.57;42.07;94572.66;5117084;28;20503;-66
2022/05/22 10:13:45;;;;;;;3.88;2.20;;;;;;;21.59;42.58;94576.59;5115991;28;20280;-65
2022/05/22 10:16:20;;;;;;;2.25;1.92;;;;;;;21.63;41.81;94570.91;5115851;28;20533;-65
2022/05/22 10:19:04;;;;;;;3.00;1.98;;;;;;;21.69;42.14;94569.16;5116749;28;20180;-65
2022/05/22 10:21:39;;;;;;;2.67;2.22;;;;;;;21.69;42.98;94568.38;5115553;28;20215;-65
2022/05/22 10:24:13;;;;;;;2.42;2.05;;;;;;;21.71;42.84;94569.50;5099174;28;20191;-65
2022/05/22 10:26:50;;;;;;;3.58;2.20;;;;;;;21.71;42.50;94563.09;5115863;28;20204;-65
2022/05/22 10:29:22;;;;;;;3.15;2.38;;;;;;;21.71;42.80;94557.47;5116684;28;20197;-65
2022/05/22 10:31:55;;;;;;;2.30;2.08;;;;;;;21.71;42.44;94555.47;5116416;28;20195;-65
2022/05/22 10:34:33;;;;;;;2.72;2.35;;;;;;;21.70;42.90;94555.91;5115766;28;20619;-65
2022/05/22 10:37:03;;;;;;;2.97;2.20;;;;;;;21.72;43.02;94557.06;5115323;28;20221;-65
2022/05/22 10:39:30;;;;;;;3.05;2.72;;;;;;;21.72;42.77;94557.06;5116088;28;20192;-65
2022/05/22 10:44:47;;;;;;;4.10;2.75;;;;;;;21.74;41.76;94560.19;5116033;28;20168;-66
2022/05/22 10:47:14;;;;;;;5.05;3.17;;;;;;;21.73;42.05;94553.00;5116304;28;20191;-65
2022/05/22 10:49:43;;;;;;;3.00;2.80;;;;;;;21.79;42.18;94547.69;5116015;28;20188;-65
2022/05/22 10:52:12;;;;;;;3.30;2.40;;;;;;;21.99;42.35;94548.34;5115210;28;20207;-65
2022/05/22 10:54:46;;;;;;;3.38;2.40;;;;;;;22.11;41.23;94555.28;5116136;28;20188;-65
2022/05/22 10:57:17;;;;;;;2.95;2.70;;;;;;;22.12;41.91;94537.22;5115636;28;20222;-65
2022/05/22 10:59:44;;;;;;;3.03;2.30;;;;;;;22.18;42.63;94543.09;5116463;28;20188;-65
2022/05/22 11:02:22;;;;;;;2.58;2.38;;;;;;;22.23;42.11;94549.00;5115097;28;20215;-64
2022/05/22 11:04:51;;;;;;;2.90;2.30;;;;;;;22.30;42.33;94546.00;5115322;28;20199;-65
2022/05/22 11:07:29;;;;;;;3.42;2.42;;;;;;;22.47;42.31;94543.13;5114422;28;20204;-65
2022/05/22 11:09:57;;;;;;;2.60;2.40;;;;;;;22.64;42.63;94541.09;5116007;28;20180;-65
2022/05/22 11:12:26;;;;;;;3.22;2.67;;;;;;;22.73;42.42;94538.41;5115176;28;20204;-65
2022/05/22 11:15:04;;;;;;;4.25;2.70;;;;;;;22.76;43.15;94535.50;5115846;28;20519;-65
2022/05/22 11:17:31;;;;;;;3.10;2.90;;;;;;;22.82;42.20;94539.34;5115691;28;20224;-65
2022/05/22 11:20:10;;;;;;;3.10;2.70;;;;;;;22.86;41.78;94522.38;5115693;28;20207;-65
2022/05/22 11:22:40;;;;;;;2.17;2.00;;;;;;;22.92;41.68;94534.69;5115315;28;20200;-65
2022/05/22 11:25:18;;;;;;;2.45;2.10;;;;;;;22.90;41.83;94531.50;5115575;28;20603;-65
2022/05/22 11:27:54;;;;;;;3.85;2.70;;;;;;;22.85;41.53;94514.41;5115425;28;20172;-65
2022/05/22 11:30:30;;;;;;;4.07;2.63;;;;;;;22.81;42.04;94520.13;5115781;28;20201;-65
2022/05/22 11:33:09;;;;;;;3.08;2.80;;;;;;;22.80;42.43;94518.53;5115523;28;20183;-65
2022/05/22 11:35:45;;;;;;;2.60;2.40;;;;;;;22.74;41.86;94515.47;5115658;28;20183;-65
2022/05/22 11:38:51;;;;;;;3.10;2.10;;;;;;;22.65;41.41;94506.91;5115069;28;20183;-69
2022/05/22 11:41:24;;;;;;;3.15;2.28;;;;;;;22.63;39.77;94503.75;5072890;28;20312;-65
2022/05/22 11:44:20;;;;;;;3.72;2.20;;;;;;;22.57;40.38;94511.94;5106326;28;20235;-65
2022/05/22 11:46:55;;;;;;;2.45;2.25;;;;;;;22.51;40.00;94512.91;5080706;28;20669;-65
2022/05/22 11:49:30;;;;;;;3.13;2.55;;;;;;;22.45;40.58;94511.91;5115025;28;20187;-65
2022/05/22 11:52:11;;;;;;;4.70;2.70;;;;;;;22.39;40.65;94522.09;5114610;28;20195;-65
2022/05/22 11:54:54;;;;;;;2.72;2.30;;;;;;;22.29;40.60;94519.13;5114290;28;20209;-65